Waitakeres Weather Go to January February March April May June
October Summaries Go to July August September October November December
Details 2007 2008 2009 2010 2011 2012 2013 2014 2015 2016
Highest Temperature 20.0C 19.6C 18.9C 22.3C 21.9C 22.3C 22.1C 22.1C 20.0C 20.7C
Lowest Temperature 6.8C 7.2C 6.0C 5.6C 7.0C 5.4C 6.0C 5.6C 5.7C 6.4C
Average Temperature 13.6C 13.7C 12.4C 12.7C 13.7C 12.8C 13.7C 13.2C 13.1C 13.4C
Highest Pressure 1034.0 hPa 1031.0 hPa 1023.0 hPa 1034.8 hPa 1026.9 hPa 1024.2 hPa 1028.4 hPa 1027.8 hPa 1031.0 hPa 1022.3 hPa
Lowest Pressure 995.0 hPa 997.0 hPa 992.0 hPa 1001.6 hPa 1000.1 hPa 996.5 hPa 993.3 hPa 998.0 hPa 1000.9 hPa 997.7 hPa
Total Rain 164.4 mm 95.9 mm 130.1 mm 58.0 mm 129.4 mm 112.0 mm 38.6 mm 130.4 mm 60.2 mm 110.4 mm
Most Rain in 24 hrs 40.9 mm 21.1 mm 43.2 mm 15.6 mm 21.8 mm 25.4 mm 8.2 mm 35.6 mm 15.0 mm 12.0 mm
Heaviest Rain       153.6 mm/hr 100.2 mm/hr 182.8 mm/hr 59.0 mm/hr 79.0 mm/hr 85.4 mm/hr 160.0 mm/hr
Number of Rain Days 20 days 15 days 22 days 12 days 17 days 20 days 16 days 20 days 17 days 23 days
Highest Gust       27.4 km/hr 29.0 km/hr 51.5 km/hr 37.0 km/hr 32.2 km/hr 27.4 km/hr 24.1 km/hr
Highest Average Wind       9.1 km/hr 9.1 km/hr 9.7 km/hr 11.3 km/hr 6.4 km/hr 4.8 km/hr 6.4 km/hr
Highest Windrun       101.3 km 123.8 km 107.1 km 95.5 km 94.4 km 48.0 km 42.7 km
Back to Current Weather Go To Rainfall Data
Tabled Data - scroll down 2016 Temperature Pressure Rain Wind
for earlier years Maximum Minimum Average Maximum Minimum Day Total Maximum Rain Rate High Gust Highest Av Run
C C C hPa hPa mm mm/hr time km/h km/h km
01/10/2016 16.2C 13.0C 14.2C 1018.9 hPa 1014.7 hPa 4.2 mm 12.6 mm/hr 04:57 hrs 17.7 km/hr 6.4 km/hr 29.3 km
02/10/2016 18.4C 10.7C 14.3C 1015.3 hPa 1007.6 hPa 5.6 mm 11.8 mm/hr 09:28 hrs 17.7 km/hr 6.4 km/hr 7.4 km
03/10/2016 17.1C 10.7C 13.4C 1008.5 hPa 1005.3 hPa 12.0 mm 64.0 mm/hr 19:50 hrs 12.9 km/hr 1.6 km/hr 3.9 km
04/10/2016 17.1C 10.6C 13.8C 1008.4 hPa 1002.5 hPa 5.6 mm 3.8 mm/hr 22:29 hrs 12.9 km/hr 3.2 km/hr 7.8 km
05/10/2016 17.8C 11.6C 14.4C 1005.9 hPa 999.2 hPa 8.4 mm 10.0 mm/hr 03:49 hrs 20.9 km/hr 4.8 km/hr 28.4 km
06/10/2016 15.8C 9.8C 13.3C 1005.0 hPa 997.7 hPa 11.8 mm 160.0 mm/hr 20:59 hrs 20.9 km/hr 4.8 km/hr 38.7 km
07/10/2016 15.4C 9.2C 11.8C 1009.8 hPa 998.5 hPa 5.4 mm 52.6 mm/hr 06:04 hrs 24.1 km/hr 4.8 km/hr 42.7 km
08/10/2016 17.8C 10.1C 13.7C 1014.2 hPa 1009.7 hPa 0.0 mm 0.0 mm/hr 00:00 hrs 14.5 km/hr 3.2 km/hr 22.3 km
09/10/2016 16.1C 9.9C 13.3C 1013.2 hPa 1008.3 hPa 2.8 mm 10.0 mm/hr 12:44 hrs 19.3 km/hr 3.2 km/hr 16.5 km
10/10/2016 14.3C 9.3C 11.5C 1016.9 hPa 1012.7 hPa 0.2 mm 0.0 mm/hr 00:00 hrs 14.5 km/hr 3.2 km/hr 20.2 km
11/10/2016 20.7C 11.1C 15.5C 1016.3 hPa 1009.2 hPa 3.6 mm 13.2 mm/hr 01:48 hrs 17.7 km/hr 6.4 km/hr 36.1 km
12/10/2016 18.1C 9.6C 14.0C 1009.5 hPa 1004.6 hPa 2.8 mm 15.6 mm/hr 05:28 hrs 24.1 km/hr 6.4 km/hr 17.0 km
13/10/2016 18.1C 7.4C 12.2C 1013.1 hPa 1009.4 hPa 0.2 mm 0.0 mm/hr 00:00 hrs 12.9 km/hr 1.6 km/hr 6.3 km
14/10/2016 17.1C 7.0C 11.3C 1012.6 hPa 1006.1 hPa 7.0 mm 31.0 mm/hr 15:44 hrs 17.7 km/hr 6.4 km/hr 13.4 km
15/10/2016 15.6C 8.4C 11.4C 1012.3 hPa 1004.1 hPa 8.8 mm 49.8 mm/hr 05:01 hrs 17.7 km/hr 3.2 km/hr 18.6 km
16/10/2016 17.2C 8.3C 12.8C 1019.8 hPa 1012.1 hPa 0.0 mm 0.0 mm/hr 00:00 hrs 20.9 km/hr 3.2 km/hr 28.6 km
17/10/2016 18.5C 10.8C 14.4C 1022.3 hPa 1019.1 hPa 0.0 mm 0.0 mm/hr 00:00 hrs 19.3 km/hr 3.2 km/hr 25.8 km
18/10/2016 19.1C 8.6C 13.3C 1022.2 hPa 1018.9 hPa 0.0 mm 0.0 mm/hr 00:00 hrs 16.1 km/hr 1.6 km/hr 10.3 km
19/10/2016 19.3C 9.4C 15.3C 1019.2 hPa 1017.0 hPa 0.0 mm 0.0 mm/hr 00:00 hrs 17.7 km/hr 3.2 km/hr 13.8 km
20/10/2016 20.6C 12.2C 15.8C 1017.6 hPa 1014.8 hPa 3.6 mm 9.0 mm/hr 19:36 hrs 19.3 km/hr 3.2 km/hr 15.1 km
21/10/2016 17.8C 8.6C 13.2C 1018.7 hPa 1015.9 hPa 10.6 mm 18.4 mm/hr 19:34 hrs 17.7 km/hr 3.2 km/hr 18.9 km
22/10/2016 17.7C 8.7C 12.4C 1017.9 hPa 1015.7 hPa 0.8 mm 1.4 mm/hr 03:35 hrs 20.9 km/hr 3.2 km/hr 24.8 km
23/10/2016 19.7C 7.1C 13.0C 1018.5 hPa 1016.0 hPa 0.0 mm 0.0 mm/hr 00:00 hrs 19.3 km/hr 1.6 km/hr 4.3 km
24/10/2016 18.6C 8.8C 13.9C 1018.1 hPa 1013.5 hPa 0.0 mm 0.0 mm/hr 00:00 hrs 19.3 km/hr 6.4 km/hr 23.8 km
25/10/2016 18.0C 12.0C 14.3C 1014.0 hPa 1010.2 hPa 9.2 mm 21.4 mm/hr 15:09 hrs 16.1 km/hr 4.8 km/hr 17.0 km
26/10/2016 18.1C 12.8C 14.7C 1016.2 hPa 1010.2 hPa 1.4 mm 7.0 mm/hr 09:04 hrs 24.1 km/hr 4.8 km/hr 31.4 km
27/10/2016 18.8C 10.7C 14.5C 1018.1 hPa 1015.5 hPa 0.8 mm 14.8 mm/hr 00:40 hrs 19.3 km/hr 3.2 km/hr 11.4 km
28/10/2016 18.8C 9.9C 14.6C 1017.5 hPa 1012.9 hPa 0.2 mm 0.0 mm/hr 00:00 hrs 17.7 km/hr 3.2 km/hr 17.2 km
29/10/2016 18.2C 9.5C 13.8C 1018.6 hPa 1012.7 hPa 2.2 mm 45.0 mm/hr 00:35 hrs 17.7 km/hr 4.8 km/hr 23.9 km
30/10/2016 17.3C 6.4C 11.9C 1021.4 hPa 1017.8 hPa 0.0 mm 0.0 mm/hr 00:00 hrs 20.9 km/hr 3.2 km/hr 19.5 km
Back to top 31/10/2016 17.4C 6.4C 10.5C 1021.9 hPa 1018.9 hPa 3.2 mm 32.2 mm/hr 16:44 hrs 19.3 km/hr 4.8 km/hr 13.1 km
Tabled Data - scroll down 2015 Temperature Pressure Rain Wind
for earlier years Maximum Minimum Average Maximum Minimum Day Total Maximum Rain Rate High Gust Highest Av Run
C C C hPa hPa mm mm/hr time km/h km/h km
01/10/2015 19.0C 8.1C 12.7C 1031.0 hPa 1026.3 hPa 0.0 mm 0.0 mm/hr 00:00 hrs 14.5 km/hr 4.8 km/hr 9.3 km
02/10/2015 16.5C 10.2C 13.7C 1026.5 hPa 1011.5 hPa 5.0 mm 12.4 mm/hr 20:12 hrs 27.4 km/hr 4.8 km/hr 46.9 km
03/10/2015 15.3C 9.4C 11.6C 1017.5 hPa 1010.9 hPa 11.6 mm 85.4 mm/hr 03:51 hrs 17.7 km/hr 3.2 km/hr 29.2 km
04/10/2015 16.2C 8.1C 12.3C 1018.6 hPa 1012.1 hPa 0.0 mm 0.0 mm/hr 00:00 hrs 14.5 km/hr 3.2 km/hr 14.7 km
05/10/2015 17.1C 7.3C 13.6C 1024.5 hPa 1010.4 hPa 0.0 mm 0.0 mm/hr 00:00 hrs 20.9 km/hr 4.8 km/hr 48.0 km
06/10/2015 17.8C 6.9C 11.8C 1030.7 hPa 1024.5 hPa 0.0 mm 0.0 mm/hr 00:00 hrs 14.5 km/hr 3.2 km/hr 14.5 km
07/10/2015 17.9C 7.7C 12.6C 1030.8 hPa 1025.0 hPa 0.0 mm 0.0 mm/hr 00:00 hrs 12.9 km/hr 1.6 km/hr 9.7 km
08/10/2015 16.9C 9.0C 12.5C 1025.2 hPa 1021.5 hPa 3.6 mm 14.6 mm/hr 19:18 hrs 25.7 km/hr 4.8 km/hr 37.1 km
09/10/2015 17.5C 5.7C 11.5C 1028.6 hPa 1024.7 hPa 0.6 mm 8.8 mm/hr 01:07 hrs 12.9 km/hr 1.6 km/hr 7.3 km
10/10/2015 15.4C 7.2C 11.3C 1026.4 hPa 1022.7 hPa 1.2 mm 17.0 mm/hr 01:17 hrs 12.9 km/hr 3.2 km/hr 10.4 km
11/10/2015 16.9C 10.6C 13.0C 1023.9 hPa 1022.1 hPa 0.2 mm 0.0 mm/hr 00:00 hrs 17.7 km/hr 3.2 km/hr 16.7 km
12/10/2015 18.8C 10.8C 14.0C 1023.7 hPa 1021.1 hPa 0.2 mm 0.0 mm/hr 00:00 hrs 14.5 km/hr 3.2 km/hr 14.7 km
13/10/2015 17.6C 11.3C 14.1C 1021.2 hPa 1016.7 hPa 3.8 mm 10.2 mm/hr 22:02 hrs 19.3 km/hr 4.8 km/hr 24.6 km
14/10/2015 17.3C 10.8C 13.7C 1023.5 hPa 1015.4 hPa 2.8 mm 3.6 mm/hr 04:19 hrs 19.3 km/hr 3.2 km/hr 21.6 km
15/10/2015 17.9C 10.7C 13.4C 1026.9 hPa 1023.3 hPa 0.0 mm 0.0 mm/hr 00:00 hrs 17.7 km/hr 3.2 km/hr 16.1 km
16/10/2015 16.2C 11.1C 13.0C 1028.5 hPa 1025.9 hPa 0.0 mm 0.0 mm/hr 00:00 hrs 14.5 km/hr 1.6 km/hr 10.8 km
17/10/2015 16.6C 9.3C 12.9C 1027.4 hPa 1024.7 hPa 0.0 mm 0.0 mm/hr 00:00 hrs 19.3 km/hr 4.8 km/hr 21.0 km
18/10/2015 17.1C 10.6C 13.8C 1026.7 hPa 1019.3 hPa 0.2 mm 0.0 mm/hr 00:00 hrs 12.9 km/hr 3.2 km/hr 15.1 km
19/10/2015 18.0C 10.3C 13.2C 1020.6 hPa 1016.6 hPa 0.4 mm 0.0 mm/hr 00:00 hrs 20.9 km/hr 4.8 km/hr 48.0 km
20/10/2015 16.2C 9.2C 12.5C 1023.5 hPa 1020.3 hPa 0.0 mm 0.0 mm/hr 00:00 hrs 12.9 km/hr 3.2 km/hr 18.3 km
21/10/2015 16.9C 10.4C 13.3C 1023.5 hPa 1019.0 hPa 1.0 mm 5.8 mm/hr 21:05 hrs 17.7 km/hr 3.2 km/hr 14.9 km
22/10/2015 16.9C 12.3C 14.6C 1019.7 hPa 1016.5 hPa 0.2 mm 0.0 mm/hr 00:00 hrs 22.5 km/hr 4.8 km/hr 36.6 km
23/10/2015 20.0C 14.2C 16.2C 1018.4 hPa 1014.6 hPa 0.0 mm 0.0 mm/hr 00:00 hrs 19.3 km/hr 3.2 km/hr 37.4 km
24/10/2015 15.8C 8.1C 13.8C 1016.3 hPa 1012.8 hPa 13.4 mm 75.2 mm/hr 09:01 hrs 22.5 km/hr 4.8 km/hr 27.0 km
25/10/2015 17.5C 7.1C 12.2C 1019.1 hPa 1015.0 hPa 0.0 mm 0.0 mm/hr 00:00 hrs 20.9 km/hr 3.2 km/hr 19.8 km
26/10/2015 18.4C 7.1C 13.0C 1019.4 hPa 1017.1 hPa 0.0 mm 0.0 mm/hr 00:00 hrs 14.5 km/hr 1.6 km/hr 12.2 km
27/10/2015 19.4C 10.3C 14.6C 1020.8 hPa 1017.8 hPa 0.0 mm 0.0 mm/hr 00:00 hrs 20.9 km/hr 4.8 km/hr 22.4 km
28/10/2015 19.6C 10.2C 14.2C 1020.7 hPa 1014.0 hPa 0.0 mm 0.0 mm/hr 00:00 hrs 16.1 km/hr 3.2 km/hr 8.5 km
29/10/2015 16.7C 11.7C 13.2C 1014.1 hPa 1000.9 hPa 15.0 mm 21.4 mm/hr 22:55 hrs 16.1 km/hr 3.2 km/hr 6.5 km
30/10/2015 18.2C 8.0C 12.3C 1015.0 hPa 1003.1 hPa 0.8 mm 2.0 mm/hr 00:00 hrs 14.5 km/hr 1.6 km/hr 7.7 km
Back to top 31/10/2015 17.8C 7.1C 12.4C 1020.7 hPa 1014.8 hPa 0.2 mm 0.0 mm/hr 00:00 hrs 16.1 km/hr 3.2 km/hr 11.7 km
Tabled Data - scroll down 2014 Temperature Pressure Rain Wind
for earlier years Maximum Minimum Average Maximum Minimum Day Total Maximum Rain Rate High Gust Highest Av Run
C C C hPa hPa mm mm/hr time km/h km/h km
01/10/2014 18.9C 6.9C 12.6C 1014.5 hPa 1009.2 hPa 0.0 mm 0.0 mm/hr 00:00 hrs 12.9 km/hr 3.2 km/hr 15.5 km
02/10/2014 17.7C 9.8C 12.4C 1009.8 hPa 1001.5 hPa 7.8 mm 40.2 mm/hr 20:10 hrs 22.5 km/hr 6.4 km/hr 24.1 km
03/10/2014 15.9C 8.7C 11.2C 1002.7 hPa 998.0 hPa 6.4 mm 56.2 mm/hr 01:53 hrs 27.4 km/hr 6.4 km/hr 59.6 km
04/10/2014 13.8C 7.8C 10.1C 1013.2 hPa 1002.5 hPa 3.4 mm 28.8 mm/hr 10:22 hrs 25.7 km/hr 6.4 km/hr 94.4 km
05/10/2014 16.0C 8.8C 11.7C 1019.1 hPa 1013.0 hPa 3.0 mm 20.6 mm/hr 21:03 hrs 22.5 km/hr 4.8 km/hr 42.2 km
06/10/2014 15.6C 10.2C 12.5C 1017.9 hPa 1010.0 hPa 1.4 mm 8.8 mm/hr 13:22 hrs 32.2 km/hr 6.4 km/hr 78.0 km
07/10/2014 16.7C 7.2C 11.9C 1020.2 hPa 1012.6 hPa 1.2 mm 2.6 mm/hr 03:37 hrs 30.6 km/hr 6.4 km/hr 68.9 km
08/10/2014 17.3C 6.8C 12.9C 1019.9 hPa 1013.1 hPa 0.0 mm 0.0 mm/hr 00:00 hrs 20.9 km/hr 4.8 km/hr 36.5 km
09/10/2014 17.2C 9.6C 13.2C 1016.6 hPa 1011.8 hPa 5.2 mm 14.6 mm/hr 01:57 hrs 24.1 km/hr 4.8 km/hr 25.3 km
10/10/2014 18.4C 9.4C 13.0C 1016.5 hPa 1013.0 hPa 0.0 mm 0.0 mm/hr 00:00 hrs 14.5 km/hr 4.8 km/hr 21.3 km
11/10/2014 19.3C 9.4C 13.7C 1016.0 hPa 1012.9 hPa 0.0 mm 0.0 mm/hr 00:00 hrs 19.3 km/hr 4.8 km/hr 31.8 km
12/10/2014 17.6C 8.6C 12.6C 1018.1 hPa 1015.0 hPa 0.0 mm 0.0 mm/hr 00:00 hrs 17.7 km/hr 3.2 km/hr 29.2 km
13/10/2014 19.1C 8.8C 13.6C 1022.2 hPa 1017.7 hPa 0.0 mm 0.0 mm/hr 00:00 hrs 9.7 km/hr 3.2 km/hr 11.6 km
14/10/2014 19.4C 8.5C 13.3C 1026.2 hPa 1021.9 hPa 0.0 mm 0.0 mm/hr 00:00 hrs 14.5 km/hr 3.2 km/hr 9.3 km
15/10/2014 20.7C 9.2C 14.0C 1027.4 hPa 1025.2 hPa 0.0 mm 0.0 mm/hr 00:00 hrs 11.3 km/hr 1.6 km/hr 8.5 km
16/10/2014 19.4C 8.2C 13.5C 1027.8 hPa 1025.0 hPa 0.0 mm 0.0 mm/hr 00:00 hrs 11.3 km/hr 3.2 km/hr 9.1 km
17/10/2014 22.1C 9.8C 15.0C 1026.3 hPa 1020.9 hPa 1.4 mm 1.6 mm/hr 21:18 hrs 19.3 km/hr 4.8 km/hr 15.7 km
18/10/2014 17.3C 12.4C 14.3C 1022.4 hPa 1018.8 hPa 22.8 mm 55.4 mm/hr 17:04 hrs 12.9 km/hr 3.2 km/hr 5.4 km
19/10/2014 18.3C 9.6C 13.6C 1020.8 hPa 1017.5 hPa 4.2 mm 11.2 mm/hr 00:37 hrs 11.3 km/hr 3.2 km/hr 14.0 km
20/10/2014 17.8C 8.4C 12.7C 1018.5 hPa 1014.8 hPa 0.2 mm 0.0 mm/hr 00:00 hrs 19.3 km/hr 4.8 km/hr 29.2 km
21/10/2014 17.2C 9.4C 13.3C 1020.3 hPa 1016.5 hPa 0.2 mm 0.0 mm/hr 00:00 hrs 11.3 km/hr 3.2 km/hr 3.3 km
22/10/2014 20.4C 11.7C 14.8C 1020.6 hPa 1018.4 hPa 0.4 mm 0.0 mm/hr 00:00 hrs 11.3 km/hr 4.8 km/hr 13.0 km
23/10/2014 18.9C 11.2C 14.3C 1020.1 hPa 1015.1 hPa 0.8 mm 2.6 mm/hr 04:22 hrs 12.9 km/hr 3.2 km/hr 13.3 km
24/10/2014 17.7C 7.5C 12.6C 1019.8 hPa 1013.2 hPa 4.2 mm 11.4 mm/hr 13:36 hrs 20.9 km/hr 4.8 km/hr 44.8 km
25/10/2014 17.5C 5.6C 10.9C 1024.4 hPa 1019.7 hPa 0.0 mm 0.0 mm/hr 00:00 hrs 14.5 km/hr 4.8 km/hr 20.3 km
26/10/2014 17.2C 6.4C 11.8C 1023.3 hPa 1016.8 hPa 0.0 mm 0.0 mm/hr 00:00 hrs 17.7 km/hr 3.2 km/hr 19.3 km
27/10/2014 17.6C 12.1C 14.1C 1016.9 hPa 1009.8 hPa 15.4 mm 10.4 mm/hr 20:11 hrs 19.3 km/hr 4.8 km/hr 41.6 km
28/10/2014 17.2C 12.9C 15.3C 1010.6 hPa 1007.3 hPa 35.6 mm 79.0 mm/hr 20:55 hrs 27.4 km/hr 4.8 km/hr 38.6 km
29/10/2014 16.5C 10.6C 15.0C 1007.5 hPa 1001.2 hPa 16.4 mm 43.6 mm/hr 08:16 hrs 19.3 km/hr 6.4 km/hr 39.5 km
30/10/2014 18.4C 10.3C 13.7C 1014.0 hPa 1002.5 hPa 0.2 mm 0.0 mm/hr 00:00 hrs 22.5 km/hr 6.4 km/hr 87.0 km
Back to top 31/10/2014 17.9C 10.5C 14.4C 1016.9 hPa 1013.7 hPa 0.2 mm 0.0 mm/hr 00:00 hrs 24.1 km/hr 4.8 km/hr 45.1 km
Tabled Data - scroll down 2013 Temperature Pressure Rain Wind
for earlier years Maximum Minimum Average Maximum Minimum Day Total Maximum Rain Rate High Gust Highest Av Run
C C C hPa hPa mm mm/hr time km/h km/h km
01/10/2013 17.7C 9.3C 13.2C 1020.8 hPa 1011.2 hPa 0.0 mm 0.0 mm/hr 00:00 hrs 17.7 km/hr 4.8 km/hr 57.1 km
02/10/2013 19.0C 7.5C 12.2C 1021.9 hPa 1019.0 hPa 0.0 mm 0.0 mm/hr 00:00 hrs 9.7 km/hr 3.2 km/hr 14.4 km
03/10/2013 18.6C 8.0C 12.9C 1020.6 hPa 1018.3 hPa 0.0 mm 0.0 mm/hr 00:00 hrs 14.5 km/hr 3.2 km/hr 13.6 km
04/10/2013 19.6C 9.6C 14.4C 1019.0 hPa 1015.4 hPa 0.0 mm 0.0 mm/hr 00:00 hrs 12.9 km/hr 3.2 km/hr 15.6 km
05/10/2013 19.6C 12.6C 15.3C 1016.5 hPa 1010.1 hPa 0.0 mm 0.0 mm/hr 00:00 hrs 9.7 km/hr 1.6 km/hr 2.4 km
06/10/2013 20.9C 10.6C 14.4C 1011.3 hPa 1006.5 hPa 0.0 mm 0.0 mm/hr 00:00 hrs 9.7 km/hr 3.2 km/hr 11.8 km
07/10/2013 19.0C 9.6C 13.8C 1007.6 hPa 1003.6 hPa 0.0 mm 0.0 mm/hr 00:00 hrs 9.7 km/hr 3.2 km/hr 17.0 km
08/10/2013 18.9C 9.6C 13.6C 1004.6 hPa 994.7 hPa 4.4 mm 51.8 mm/hr 17:19 hrs 20.9 km/hr 6.4 km/hr 53.7 km
09/10/2013 16.3C 10.3C 12.4C 1005.7 hPa 996.7 hPa 3.2 mm 53.6 mm/hr 02:57 hrs 20.9 km/hr 6.4 km/hr 76.5 km
10/10/2013 16.7C 6.4C 11.8C 1007.5 hPa 1003.5 hPa 4.2 mm 59.0 mm/hr 03:40 hrs 19.3 km/hr 3.2 km/hr 33.9 km
11/10/2013 15.3C 12.1C 14.4C 1003.8 hPa 993.3 hPa 8.2 mm 37.2 mm/hr 22:23 hrs 30.6 km/hr 8.0 km/hr 93.6 km
12/10/2013 16.7C 10.4C 12.6C 1010.6 hPa 994.5 hPa 3.2 mm 39.2 mm/hr 16:30 hrs 24.1 km/hr 6.4 km/hr 95.5 km
13/10/2013 17.7C 10.8C 14.2C 1017.1 hPa 1010.5 hPa 0.0 mm 0.0 mm/hr 00:00 hrs 17.7 km/hr 4.8 km/hr 66.6 km
14/10/2013 18.2C 12.8C 15.1C 1016.8 hPa 1007.8 hPa 0.0 mm 0.0 mm/hr 00:00 hrs 35.4 km/hr 9.7 km/hr 74.7 km
15/10/2013 18.3C 8.9C 14.3C 1011.7 hPa 996.8 hPa 2.2 mm 26.6 mm/hr 23:37 hrs 35.4 km/hr 11.3 km/hr 84.2 km
16/10/2013 17.5C 8.2C 12.7C 1020.5 hPa 1011.5 hPa 1.6 mm 24.2 mm/hr 00:45 hrs 19.3 km/hr 4.8 km/hr 53.1 km
17/10/2013 17.4C 10.3C 14.1C 1026.5 hPa 1020.5 hPa 0.0 mm 0.0 mm/hr 00:00 hrs 12.9 km/hr 4.8 km/hr 34.9 km
18/10/2013 19.3C 9.9C 14.3C 1027.8 hPa 1025.0 hPa 0.0 mm 0.0 mm/hr 00:00 hrs 17.7 km/hr 3.2 km/hr 24.0 km
19/10/2013 19.8C 8.8C 14.5C 1028.4 hPa 1026.1 hPa 0.2 mm 0.0 mm/hr 00:00 hrs 14.5 km/hr 3.2 km/hr 30.1 km
20/10/2013 18.8C 7.5C 13.1C 1028.2 hPa 1025.4 hPa 0.0 mm 0.0 mm/hr 00:00 hrs 9.7 km/hr 3.2 km/hr 21.6 km
21/10/2013 18.3C 8.1C 12.9C 1025.9 hPa 1021.9 hPa 0.0 mm 0.0 mm/hr 00:00 hrs 12.9 km/hr 3.2 km/hr 14.9 km
22/10/2013 17.9C 8.1C 13.5C 1022.6 hPa 1019.1 hPa 0.0 mm 0.0 mm/hr 00:00 hrs 16.1 km/hr 3.2 km/hr 29.3 km
23/10/2013 16.3C 14.1C 15.0C 1020.4 hPa 1018.1 hPa 4.6 mm 5.0 mm/hr 09:37 hrs 17.7 km/hr 3.2 km/hr 33.4 km
24/10/2013 18.9C 13.3C 15.6C 1020.5 hPa 1016.7 hPa 0.2 mm 0.0 mm/hr 00:00 hrs 19.3 km/hr 4.8 km/hr 28.6 km
25/10/2013 20.1C 10.9C 14.9C 1017.5 hPa 1011.0 hPa 1.8 mm 3.8 mm/hr 17:28 hrs 37.0 km/hr 9.7 km/hr 73.4 km
26/10/2013 19.1C 8.3C 13.4C 1020.2 hPa 1017.4 hPa 0.6 mm 0.0 mm/hr 00:00 hrs 12.9 km/hr 3.2 km/hr 17.3 km
27/10/2013 17.3C 7.3C 12.6C 1018.7 hPa 1013.7 hPa 1.8 mm 38.2 mm/hr 20:12 hrs 19.3 km/hr 4.8 km/hr 25.0 km
28/10/2013 18.4C 8.3C 12.9C 1018.9 hPa 1015.0 hPa 0.4 mm 0.0 mm/hr 00:00 hrs 16.1 km/hr 4.8 km/hr 27.5 km
29/10/2013 17.2C 6.0C 11.6C 1019.8 hPa 1017.8 hPa 0.2 mm 0.0 mm/hr 00:00 hrs 12.9 km/hr 3.2 km/hr 16.4 km
30/10/2013 17.1C 6.8C 12.8C 1019.7 hPa 1017.1 hPa 0.0 mm 0.0 mm/hr 00:00 hrs 14.5 km/hr 3.2 km/hr 17.4 km
Back to top 31/10/2013 22.1C 10.7C 15.8C 1017.2 hPa 1006.8 hPa 1.8 mm 37.2 mm/hr 22:39 hrs 24.1 km/hr 8.0 km/hr 53.3 km
Tabled Data - scroll down 2012 Temperature Pressure Rain Wind
for earlier years Maximum Minimum Average Maximum Minimum Day Total Maximum Rain Rate High Gust Highest Av Run
C C C hPa hPa mm mm/hr time km/h km/h km
01/10/2012 17.0C 9.3C 12.3C 1012.4 hPa 1008.6 hPa 12.4 mm 85.4 mm/hr 22:39 hrs 12.9 km/hr 4.8 km/hr 48.5 km
02/10/2012 16.5C 8.6C 11.4C 1014.1 hPa 1010.1 hPa 6.2 mm 29.6 mm/hr 12:19 hrs 20.9 km/hr 4.8 km/hr 62.3 km
03/10/2012 16.3C 9.4C 11.8C 1013.9 hPa 1009.8 hPa 2.6 mm 11.2 mm/hr 11:33 hrs 16.1 km/hr 4.8 km/hr 58.4 km
04/10/2012 16.9C 9.6C 12.4C 1012.9 hPa 1007.6 hPa 2.4 mm 50.6 mm/hr 08:11 hrs 17.7 km/hr 6.4 km/hr 68.6 km
05/10/2012 16.7C 8.2C 12.7C 1015.0 hPa 1009.5 hPa 0.8 mm 5.6 mm/hr 14:32 hrs 17.7 km/hr 4.8 km/hr 42.0 km
06/10/2012 17.2C 8.8C 13.7C 1010.4 hPa 1004.5 hPa 4.0 mm 25.6 mm/hr 07:11 hrs 22.5 km/hr 6.4 km/hr 91.4 km
07/10/2012 16.0C 8.2C 11.4C 1016.3 hPa 1010.2 hPa 0.0 mm 2.0 mm/hr 00:00 hrs 19.3 km/hr 4.8 km/hr 42.1 km
08/10/2012 20.9C 8.3C 13.8C 1015.4 hPa 1007.8 hPa 1.4 mm 5.0 mm/hr 19:10 hrs 20.9 km/hr 8.0 km/hr 42.7 km
09/10/2012 18.4C 9.2C 13.8C 1014.5 hPa 1009.9 hPa 0.2 mm 0.0 mm/hr 00:00 hrs 20.9 km/hr 6.4 km/hr 26.0 km
10/10/2012 17.0C 8.6C 12.0C 1015.2 hPa 1012.3 hPa 0.0 mm 0.0 mm/hr 00:00 hrs 11.3 km/hr 3.2 km/hr 6.7 km
11/10/2012 18.5C 8.0C 12.5C 1023.6 hPa 1014.8 hPa 0.0 mm 0.0 mm/hr 00:00 hrs 14.5 km/hr 4.8 km/hr 30.6 km
12/10/2012 20.6C 6.8C 13.2C 1024.2 hPa 1013.8 hPa 0.0 mm 0.0 mm/hr 00:00 hrs 12.9 km/hr 4.8 km/hr 18.2 km
13/10/2012 17.7C 11.2C 14.0C 1013.8 hPa 996.5 hPa 13.4 mm 46.2 mm/hr 10:30 hrs 51.5 km/hr 9.7 km/hr 96.8 km
14/10/2012 15.9C 9.3C 12.0C 1013.3 hPa 1003.1 hPa 2.4 mm 30.2 mm/hr 04:51 hrs 24.1 km/hr 6.4 km/hr 84.3 km
15/10/2012 16.6C 9.7C 12.3C 1016.4 hPa 1013.0 hPa 0.8 mm 21.0 mm/hr 18:15 hrs 19.3 km/hr 4.8 km/hr 69.0 km
16/10/2012 17.6C 8.6C 12.2C 1017.4 hPa 1015.7 hPa 2.2 mm 7.6 mm/hr 01:11 hrs 17.7 km/hr 4.8 km/hr 62.1 km
17/10/2012 18.3C 10.7C 14.2C 1017.7 hPa 1012.2 hPa 0.2 mm 0.0 mm/hr 00:00 hrs 20.9 km/hr 4.8 km/hr 61.7 km
18/10/2012 16.8C 10.9C 13.7C 1012.5 hPa 1003.8 hPa 14.8 mm 182.8 mm/hr 09:50 hrs 30.6 km/hr 8.0 km/hr 97.7 km
19/10/2012 15.9C 9.2C 11.9C 1016.2 hPa 1006.5 hPa 2.4 mm 21.6 mm/hr 03:43 hrs 30.6 km/hr 6.4 km/hr 101.8 km
20/10/2012 16.9C 7.4C 11.8C 1019.1 hPa 1015.9 hPa 0.0 mm 0.0 mm/hr 00:00 hrs 16.1 km/hr 3.2 km/hr 28.4 km
21/10/2012 15.4C 10.5C 13.5C 1016.0 hPa 1005.2 hPa 25.4 mm 78.4 mm/hr 09:47 hrs 33.8 km/hr 8.0 km/hr 107.1 km
22/10/2012 16.6C 11.2C 13.9C 1012.7 hPa 1006.0 hPa 3.4 mm 41.0 mm/hr 17:00 hrs 22.5 km/hr 4.8 km/hr 47.8 km
23/10/2012 13.8C 5.9C 10.5C 1019.8 hPa 1010.8 hPa 0.4 mm 0.0 mm/hr 00:00 hrs 14.5 km/hr 3.2 km/hr 19.6 km
24/10/2012 18.6C 5.4C 10.9C 1022.4 hPa 1017.6 hPa 0.0 mm 0.0 mm/hr 00:00 hrs 14.5 km/hr 3.2 km/hr 24.4 km
25/10/2012 16.5C 6.3C 10.9C 1018.3 hPa 1009.2 hPa 0.0 mm 0.0 mm/hr 00:00 hrs 11.3 km/hr 3.2 km/hr 20.4 km
26/10/2012 19.0C 7.9C 13.2C 1012.2 hPa 1008.9 hPa 0.0 mm 0.0 mm/hr 00:00 hrs 12.9 km/hr 3.2 km/hr 19.3 km
27/10/2012 20.4C 8.5C 13.6C 1013.7 hPa 1011.2 hPa 0.0 mm 0.0 mm/hr 00:00 hrs 12.9 km/hr 3.2 km/hr 16.6 km
28/10/2012 19.4C 9.8C 14.1C 1013.6 hPa 1007.6 hPa 7.6 mm 14.0 mm/hr 22:57 hrs 12.9 km/hr 4.8 km/hr 18.4 km
29/10/2012 18.8C 10.8C 13.6C 1012.6 hPa 1005.4 hPa 9.0 mm 6.8 mm/hr 11:12 hrs 17.7 km/hr 6.4 km/hr 21.8 km
30/10/2012 22.3C 11.0C 15.8C 1015.9 hPa 1012.3 hPa 0.0 mm 0.0 mm/hr 00:00 hrs 12.9 km/hr 4.8 km/hr 32.1 km
Back to top 31/10/2012 18.2C 9.9C 13.6C 1015.9 hPa 1012.6 hPa 0.0 mm 0.0 mm/hr 00:00 hrs 11.3 km/hr 3.2 km/hr 32.3 km
2011 Temperature Pressure Rain Wind
Maximum Minimum Average Maximum Minimum Day Total Maximum Rain Rate High Gust Highest Av Run
C C C hPa hPa mm mm/hr time km/h km/h km
01/10/2011 15.2C 10.7C 12.9C 1021.7 hPa 1019.8 hPa 0.0 mm 0.0 mm/hr 00:00 hrs 25.7 km/hr 9.1 km/hr 123.8 km
02/10/2011 14.8C 13.2C 14.0C 1020.2 hPa 1012.7 hPa 3.0 mm 5.8 mm/hr 18:10 hrs 19.3 km/hr 7.4 km/hr 102.4 km
03/10/2011 17.2C 12.9C 15.3C 1013.0 hPa 1002.4 hPa 7.2 mm 23.2 mm/hr 08:28 hrs 19.3 km/hr 6.7 km/hr 74.9 km
04/10/2011 19.9C 11.1C 14.6C 1007.8 hPa 1003.9 hPa 2.2 mm 34.0 mm/hr 03:22 hrs 16.1 km/hr 5.8 km/hr 29.1 km
05/10/2011 18.2C 8.7C 13.0C 1010.6 hPa 1007.4 hPa 7.6 mm 100.2 mm/hr 12:25 hrs 16.1 km/hr 6.2 km/hr 52.2 km
06/10/2011 19.7C 9.1C 13.4C 1010.2 hPa 1006.0 hPa 0.0 mm 0.0 mm/hr 00:00 hrs 17.7 km/hr 4.5 km/hr 37.0 km
07/10/2011 17.8C 8.6C 12.4C 1013.5 hPa 1007.7 hPa 0.0 mm 0.0 mm/hr 00:00 hrs 12.9 km/hr 3.9 km/hr 27.7 km
08/10/2011 17.2C 8.2C 11.9C 1014.2 hPa 1011.5 hPa 0.2 mm 0.0 mm/hr 00:00 hrs 14.5 km/hr 4.5 km/hr 26.5 km
09/10/2011 16.6C 7.0C 11.5C 1018.6 hPa 1014.0 hPa 0.0 mm 0.0 mm/hr 00:00 hrs 12.9 km/hr 3.8 km/hr 16.3 km
10/10/2011 16.5C 10.1C 13.4C 1018.6 hPa 1012.6 hPa 10.4 mm 7.6 mm/hr 22:19 hrs 22.5 km/hr 7.6 km/hr 91.5 km
11/10/2011 19.3C 14.3C 16.2C 1016.0 hPa 1012.1 hPa 17.8 mm 91.4 mm/hr 21:51 hrs 9.7 km/hr 3.1 km/hr 22.5 km
12/10/2011 15.8C 14.2C 15.0C 1015.3 hPa 1012.2 hPa 6.2 mm 11.8 mm/hr 10:48 hrs 20.9 km/hr 5.1 km/hr 43.4 km
13/10/2011 16.7C 9.2C 13.4C 1014.0 hPa 1009.6 hPa 12.8 mm 12.6 mm/hr 07:01 hrs 16.1 km/hr 3.6 km/hr 24.9 km
14/10/2011 17.3C 9.1C 12.3C 1017.7 hPa 1013.2 hPa 4.8 mm 36.6 mm/hr 02:11 hrs 16.1 km/hr 4.6 km/hr 32.1 km
15/10/2011 17.2C 8.3C 12.3C 1019.5 hPa 1017.3 hPa 0.0 mm 0.0 mm/hr 00:00 hrs 17.7 km/hr 5.0 km/hr 28.5 km
16/10/2011 17.7C 8.3C 12.5C 1021.9 hPa 1018.2 hPa 1.4 mm 62.0 mm/hr 00:55 hrs 12.9 km/hr 4.0 km/hr 28.6 km
17/10/2011 20.2C 7.6C 13.7C 1021.6 hPa 1009.0 hPa 19.4 mm 19.0 mm/hr 21:30 hrs 16.1 km/hr 6.2 km/hr 29.9 km
18/10/2011 15.3C 8.9C 11.9C 1009.0 hPa 1005.2 hPa 13.8 mm 21.8 mm/hr 21:42 hrs 22.5 km/hr 5.3 km/hr 56.8 km
19/10/2011 14.4C 8.7C 10.6C 1006.4 hPa 1000.1 hPa 21.8 mm 81.8 mm/hr 06:05 hrs 29.0 km/hr 6.2 km/hr 56.4 km
20/10/2011 16.7C 7.3C 11.8C 1017.1 hPa 1006.0 hPa 0.2 mm 0.0 mm/hr 00:00 hrs 16.1 km/hr 5.5 km/hr 47.3 km
21/10/2011 18.9C 10.8C 14.4C 1018.1 hPa 1015.4 hPa 0.0 mm 0.0 mm/hr 00:00 hrs 17.7 km/hr 4.9 km/hr 64.1 km
22/10/2011 17.9C 12.6C 14.4C 1019.8 hPa 1016.8 hPa 0.0 mm 0.0 mm/hr 00:00 hrs 12.9 km/hr 4.2 km/hr 50.0 km
23/10/2011 16.9C 8.3C 13.3C 1023.4 hPa 1019.7 hPa 0.4 mm 0.0 mm/hr 00:00 hrs 12.9 km/hr 3.6 km/hr 12.8 km
24/10/2011 18.0C 7.7C 11.8C 1023.6 hPa 1020.4 hPa 0.0 mm 0.0 mm/hr 00:00 hrs 16.1 km/hr 3.7 km/hr 16.7 km
25/10/2011 18.6C 9.1C 13.1C 1021.8 hPa 1019.0 hPa 0.0 mm 0.0 mm/hr 00:00 hrs 11.3 km/hr 3.5 km/hr 19.8 km
26/10/2011 17.9C 10.7C 14.3C 1021.4 hPa 1018.3 hPa 0.0 mm 0.0 mm/hr 00:00 hrs 16.1 km/hr 4.5 km/hr 22.6 km
27/10/2011 21.5C 14.3C 16.6C 1025.7 hPa 1020.6 hPa 0.0 mm 0.0 mm/hr 00:00 hrs 11.3 km/hr 4.1 km/hr 20.0 km
28/10/2011 19.2C 12.3C 15.8C 1026.9 hPa 1024.3 hPa 0.0 mm 0.0 mm/hr 00:00 hrs 12.9 km/hr 4.5 km/hr 42.7 km
29/10/2011 20.5C 11.2C 15.3C 1026.0 hPa 1022.8 hPa 0.2 mm 0.0 mm/hr 00:00 hrs 17.7 km/hr 6.7 km/hr 26.9 km
30/10/2011 21.9C 12.8C 16.3C 1026.0 hPa 1023.8 hPa 0.0 mm 0.0 mm/hr 00:00 hrs 12.9 km/hr 5.3 km/hr 38.8 km
Back to top 31/10/2011 20.8C 10.9C 16.6C 1023.5 hPa 1017.3 hPa 0.2 mm 0.0 mm/hr 05:32 hrs 22.5 km/hr 5.6 km/hr 58.6 km
2010 Temperature Pressure Rain Wind
Maximum Minimum Average Maximum Minimum Day Total Maximum Rain Rate High Gust Highest Av Run
C C C hPa hPa mm mm/hr time km/h km/h km
01/10/2010 17.1C 8.0C 11.9C 1028.5 hPa 1014.1 hPa 15.6 mm 82.8 mm/hr 00:17 hrs 12.9 km/hr 5.0 km/hr 34.2 km
02/10/2010 16.2C 6.6C 10.8C 1031.5 hPa 1028.1 hPa 0.0 mm 0.0 mm/hr 00:00 hrs 12.9 km/hr 5.0 km/hr 33.5 km
03/10/2010 17.4C 7.6C 11.2C 1032.8 hPa 1030.0 hPa 0.0 mm 0.0 mm/hr 00:00 hrs 9.7 km/hr 4.9 km/hr 20.1 km
04/10/2010 19.4C 7.9C 12.3C 1034.8 hPa 1031.0 hPa 0.0 mm 0.0 mm/hr 00:00 hrs 11.3 km/hr 3.6 km/hr 16.1 km
05/10/2010 17.9C 8.7C 12.7C 1033.6 hPa 1031.0 hPa 0.0 mm 0.0 mm/hr 00:00 hrs 8.0 km/hr 2.8 km/hr 11.5 km
06/10/2010 16.3C 8.6C 12.4C 1032.5 hPa 1028.2 hPa 0.0 mm 0.0 mm/hr 00:00 hrs 9.7 km/hr 3.3 km/hr 14.0 km
07/10/2010 16.6C 8.3C 12.2C 1028.7 hPa 1023.2 hPa 0.0 mm 0.0 mm/hr 00:00 hrs 14.5 km/hr 4.5 km/hr 24.0 km
08/10/2010 18.2C 9.1C 13.5C 1023.5 hPa 1016.8 hPa 1.0 mm 13.2 mm/hr 04:06 hrs 16.1 km/hr 7.2 km/hr 34.0 km
09/10/2010 16.4C 8.3C 13.1C 1024.4 hPa 1014.3 hPa 3.6 mm 13.4 mm/hr 11:31 hrs 17.7 km/hr 6.0 km/hr 62.0 km
10/10/2010 16.6C 6.8C 11.3C 1027.4 hPa 1023.1 hPa 0.0 mm 0.0 mm/hr 00:00 hrs 14.5 km/hr 5.2 km/hr 30.6 km
11/10/2010 12.4C 6.6C 9.2C 1029.6 hPa 1021.0 hPa 10.0 mm 18.8 mm/hr 02:25 hrs 17.7 km/hr 6.2 km/hr 58.1 km
12/10/2010 16.5C 5.6C 10.5C 1029.6 hPa 1018.0 hPa 1.2 mm 9.4 mm/hr 22:10 hrs 14.5 km/hr 3.2 km/hr 20.5 km
13/10/2010 16.4C 7.6C 13.0C 1018.6 hPa 1008.3 hPa 2.6 mm 4.0 mm/hr 21:21 hrs 14.5 km/hr 2.1 km/hr 13.9 km
14/10/2010 21.1C 11.6C 14.8C 1009.8 hPa 1006.9 hPa 0.6 mm 0.0 mm/hr 00:00 hrs 9.7 km/hr 4.1 km/hr 17.2 km
15/10/2010 18.0C 12.4C 13.9C 1014.4 hPa 1008.4 hPa 0.0 mm 0.0 mm/hr 00:00 hrs 14.5 km/hr 5.8 km/hr 46.8 km
16/10/2010 17.2C 11.3C 13.2C 1015.3 hPa 1010.9 hPa 0.0 mm 0.0 mm/hr 00:00 hrs 19.3 km/hr 4.6 km/hr 25.9 km
17/10/2010 16.8C 10.4C 13.4C 1011.2 hPa 1001.6 hPa 4.0 mm 6.2 mm/hr 15:43 hrs 24.1 km/hr 9.1 km/hr 47.4 km
18/10/2010 16.2C 8.3C 12.5C 1015.3 hPa 1005.6 hPa 7.0 mm 153.6 mm/hr 05:03 hrs 22.5 km/hr 6.4 km/hr 57.3 km
19/10/2010 16.1C 7.1C 11.8C 1016.9 hPa 1011.2 hPa 0.2 mm 0.0 mm/hr 00:00 hrs 19.3 km/hr 5.5 km/hr 46.7 km
20/10/2010 14.4C 9.4C 11.5C 1014.0 hPa 1008.6 hPa 10.4 mm 115.2 mm/hr 03:36 hrs 19.3 km/hr 6.8 km/hr 79.3 km
21/10/2010 16.0C 9.3C 12.1C 1013.6 hPa 1008.3 hPa 1.8 mm 21.6 mm/hr 09:39 hrs 27.4 km/hr 7.2 km/hr 101.3 km
22/10/2010 16.9C 8.9C 12.3C 1023.6 hPa 1012.0 hPa 0.0 mm 0.0 mm/hr 00:00 hrs 22.5 km/hr 6.8 km/hr 63.2 km
23/10/2010 19.4C 7.7C 12.6C 1027.6 hPa 1023.5 hPa 0.0 mm 0.0 mm/hr 00:00 hrs 11.3 km/hr 3.5 km/hr 15.5 km
24/10/2010 22.1C 7.8C 13.9C 1029.1 hPa 1026.8 hPa 0.0 mm 0.0 mm/hr 00:00 hrs 9.7 km/hr 3.9 km/hr 17.3 km
25/10/2010 21.3C 9.9C 14.8C 1030.4 hPa 1028.1 hPa 0.0 mm 0.0 mm/hr 00:00 hrs 12.9 km/hr 3.5 km/hr 13.5 km
26/10/2010 22.3C 9.6C 14.7C 1030.2 hPa 1027.1 hPa 0.0 mm 0.0 mm/hr 00:00 hrs 11.3 km/hr 3.1 km/hr 9.9 km
27/10/2010 20.5C 10.8C 14.7C 1029.0 hPa 1024.8 hPa 0.0 mm 0.0 mm/hr 00:00 hrs 12.9 km/hr 5.7 km/hr 40.0 km
28/10/2010 21.1C 10.2C 14.3C 1027.2 hPa 1024.1 hPa 0.0 mm 0.0 mm/hr 00:00 hrs 17.7 km/hr 5.6 km/hr 31.7 km
29/10/2010 21.3C 10.1C 14.7C 1033.5 hPa 1026.8 hPa 0.0 mm 0.0 mm/hr 00:00 hrs 11.3 km/hr 4.7 km/hr 30.5 km
30/10/2010 18.2C 10.7C 13.4C 1034.0 hPa 1031.3 hPa 0.0 mm 0.0 mm/hr 00:00 hrs 12.9 km/hr 5.1 km/hr 42.9 km
Back to top 31/10/2010 17.9C 6.8C 12.2C 1032.5 hPa 1027.5 hPa 0.0 mm 0.0 mm/hr 00:00 hrs 12.9 km/hr 4.2 km/hr 27.8 km
2009 Temperature Pressure Rain Wind
Maximum Minimum Average Maximum Minimum Day Total Maximum Rain Rate High Gust Highest Av Run
C C C hPa hPa mm mm/hr time km/h km/h km
01/10/2009 14.3C 10.4C 12.4C 1009.0 hPa 1005.0 hPa 2.7 mm          
02/10/2009 15.8C 11.2C 13.5C 1011.0 hPa 1008.0 hPa 0.9 mm          
03/10/2009 14.4C 12.6C 13.5C 1009.0 hPa 1009.0 hPa 9.9 mm          
04/10/2009 14.6C 9.2C 11.9C 1007.0 hPa 1004.0 hPa 9.0 mm          
05/10/2009 9.2C 6.5C 7.9C 1012.0 hPa 1007.0 hPa 10.8 mm          
06/10/2009 12.8C 6.0C 9.4C 1016.0 hPa 1014.0 hPa 3.1 mm          
07/10/2009 13.9C 6.8C 10.4C 1019.0 hPa 1017.0 hPa 0.4 mm          
08/10/2009 14.2C 9.1C 11.7C 1017.0 hPa 1014.0 hPa 0.0 mm          
09/10/2009 13.6C 9.8C 11.7C 1005.0 hPa 992.0 hPa 6.7 mm          
10/10/2009 12.8C 10.3C 11.6C 1005.0 hPa 994.0 hPa 0.4 mm          
11/10/2009 15.6C 6.1C 10.9C 1016.0 hPa 1014.0 hPa 0.0 mm          
12/10/2009 15.2C 8.8C 12.0C 1015.0 hPa 1014.0 hPa 0.0 mm          
13/10/2009 16.9C 9.2C 13.1C 1014.0 hPa 1013.0 hPa 0.0 mm          
14/10/2009 16.8C 10.2C 13.5C 1013.0 hPa 1012.0 hPa 1.3 mm          
15/10/2009 15.3C 14.2C 14.8C 1010.0 hPa 1009.0 hPa 43.2 mm          
16/10/2009 17.2C 13.3C 15.3C 1012.0 hPa 1011.0 hPa 0.0 mm          
17/10/2009 18.8C 13.1C 16.0C 1010.0 hPa 1004.0 hPa 0.4 mm          
18/10/2009 15.6C 11.6C 13.6C 1007.0 hPa 1005.0 hPa 2.7 mm          
19/10/2009 16.8C 10.2C 13.5C 1011.0 hPa 1011.0 hPa 2.7 mm          
20/10/2009 14.8C 10.4C 12.6C 1014.0 hPa 1012.0 hPa 6.7 mm          
21/10/2009 15.8C 7.0C 11.4C 1021.0 hPa 1019.0 hPa 0.4 mm          
22/10/2009 15.2C 10.4C 12.8C 1019.0 hPa 1017.0 hPa 1.4 mm          
23/10/2009 15.1C 9.0C 12.1C 1019.0 hPa 1016.0 hPa 4.5 mm          
24/10/2009 16.8C 7.9C 12.4C 1020.0 hPa 1018.0 hPa 0.0 mm          
25/10/2009 16.3C 8.6C 12.5C 1018.0 hPa 1016.0 hPa 0.0 mm          
26/10/2009 15.8C 9.3C 12.6C 1015.0 hPa 1010.0 hPa 11.7 mm          
27/10/2009 13.4C 11.8C 12.6C 1006.0 hPa 1006.0 hPa 5.8 mm          
28/10/2009 17.3C 11.0C 14.2C 1011.0 hPa 1010.0 hPa 0.9 mm          
29/10/2009 14.3C 9.4C 11.9C 1013.0 hPa 1010.0 hPa 4.5 mm          
30/10/2009 15.8C 6.4C 11.1C 1019.0 hPa 1017.0 hPa 0.0 mm          
Back to top 31/10/2009 18.9C 6.8C 12.9C 1023.0 hPa 1022.0 hPa 0.0 mm          
2008 Temperature Pressure Rain Wind
Maximum Minimum Average Maximum Minimum Day Total Maximum Rain Rate High Gust Highest Av Run
C C C hPa hPa mm mm/hr time km/h km/h km
01/10/2008 15.0C 8.0C 11.5C 1014.0 hPa 1011.0 hPa 4.0 mm          
02/10/2008 15.2C 8.5C 11.9C 1025.0 hPa 1023.0 hPa 0.0 mm          
03/10/2008 16.5C 11.0C 13.8C 1025.0 hPa 1024.0 hPa 0.0 mm          
04/10/2008 17.2C 12.8C 15.0C 1024.0 hPa 1022.0 hPa 0.0 mm          
05/10/2008 15.4C 13.6C 14.5C 1022.0 hPa 1020.0 hPa 0.0 mm          
06/10/2008 14.4C 13.5C 14.0C 1019.0 hPa 1013.0 hPa 16.2 mm          
07/10/2008 17.2C 13.2C 15.2C 1007.0 hPa 997.0 hPa 21.1 mm          
08/10/2008 15.2C 10.2C 12.7C 1008.0 hPa 1006.0 hPa 1.3 mm          
09/10/2008 15.2C 10.2C 12.7C 1018.0 hPa 1010.0 hPa 8.1 mm          
10/10/2008 15.1C 7.2C 11.2C 1026.0 hPa 1023.0 hPa 1.3 mm          
11/10/2008 15.6C 9.5C 12.6C 1027.0 hPa 1026.0 hPa 1.8 mm          
12/10/2008 17.2C 10.1C 13.7C 1029.0 hPa 1028.0 hPa 0.0 mm          
13/10/2008 18.3C 9.6C 14.0C 1031.0 hPa 1030.0 hPa 0.0 mm          
14/10/2008 17.8C 11.1C 14.5C 1030.0 hPa 1028.0 hPa 0.0 mm          
15/10/2008 17.5C 11.2C 14.4C 1026.0 hPa 1026.0 hPa 0.0 mm          
16/10/2008 19.2C 12.7C 16.0C 1019.0 hPa 1016.0 hPa 0.0 mm          
17/10/2008 15.0C 12.6C 13.8C 1015.0 hPa 1014.0 hPa 8.5 mm          
18/10/2008 16.5C 10.0C 13.3C 1018.0 hPa 1017.0 hPa 2.2 mm          
19/10/2008 17.0C 10.4C 13.7C 1021.0 hPa 1019.0 hPa 1.3 mm          
20/10/2008 17.1C 9.3C 13.2C 1024.0 hPa 1023.0 hPa 0.0 mm          
21/10/2008 17.1C 9.0C 13.1C 1023.0 hPa 1021.0 hPa 0.0 mm          
22/10/2008 19.6C 10.8C 15.2C 1021.0 hPa 1019.0 hPa 0.0 mm          
23/10/2008 18.7C 12.7C 15.7C 1019.0 hPa 1018.0 hPa 2.2 mm          
24/10/2008 18.4C 13.0C 15.7C 1014.0 hPa 1003.0 hPa 16.2 mm          
25/10/2008 17.2C 12.0C 14.6C 1002.0 hPa 997.0 hPa 1.8 mm          
26/10/2008 15.0C 10.6C 12.8C 1014.0 hPa 1005.0 hPa 7.2 mm          
27/10/2008 17.7C 8.0C 12.9C 1023.0 hPa 1022.0 hPa 0.0 mm          
28/10/2008 16.4C 12.0C 14.2C 1023.0 hPa 1020.0 hPa 0.0 mm          
29/10/2008 14.4C 11.9C 13.2C 1018.0 hPa 1016.0 hPa 2.7 mm          
30/10/2008 16.0C 9.1C 12.6C 1020.0 hPa 1019.0 hPa 0.0 mm          
Back to top 31/10/2008 16.7C 9.9C 13.3C 1021.0 hPa 1021.0 hPa 0.0 mm          
2007 Temperature Pressure Rain Wind
Maximum Minimum Average Maximum Minimum Day Total Maximum Rain Rate High Gust Highest Av Run
C C C hPa hPa mm mm/hr time km/h km/h km
01/10/2007       1007.0 hPa 1006.0 hPa 40.9 mm          
02/10/2007       1012.0 hPa 1005.0 hPa 16.6 mm          
03/10/2007       1017.0 hPa 1017.0 hPa 8.5 mm          
04/10/2007       1019.0 hPa 1015.0 hPa 0.4 mm          
05/10/2007       1023.0 hPa 1022.0 hPa 4.9 mm          
06/10/2007       1023.0 hPa 1022.0 hPa 0.0 mm          
07/10/2007       1022.0 hPa 1021.0 hPa 0.0 mm          
08/10/2007 19.2C 12.7C 16.0C 1019.0 hPa 1017.0 hPa 0.0 mm          
09/10/2007 17.2C 13.7C 15.5C 1017.0 hPa 1015.0 hPa 0.0 mm          
10/10/2007 18.8C 13.1C 16.0C 1011.0 hPa 1006.0 hPa 5.8 mm          
11/10/2007 14.5C 12.0C 13.3C 1006.0 hPa 1005.0 hPa 5.4 mm          
12/10/2007 16.1C 10.0C 13.1C 1009.0 hPa 1008.0 hPa 8.5 mm          
13/10/2007 16.1C 10.0C 13.1C 1010.0 hPa 995.0 hPa 12.1 mm          
14/10/2007 16.1C 10.2C 13.2C 1009.0 hPa 1001.0 hPa 3.1 mm          
15/10/2007 15.1C 8.8C 12.0C 1009.0 hPa 1006.0 hPa 5.4 mm          
16/10/2007 16.5C 9.4C 13.0C 1014.0 hPa 1010.0 hPa 0.9 mm          
17/10/2007 17.4C 13.3C 15.4C 1013.0 hPa 1009.0 hPa 19.8 mm          
18/10/2007 14.6C 10.9C 12.8C 1013.0 hPa 1010.0 hPa 5.8 mm          
19/10/2007 14.8C 6.8C 10.8C 1024.0 hPa 1023.0 hPa 0.4 mm          
20/10/2007 14.0C 6.8C 10.4C 1023.0 hPa 1018.0 hPa 1.3 mm          
21/10/2007 16.5C 9.8C 13.2C 1017.0 hPa 1017.0 hPa 0.0 mm          
22/10/2007 16.0C 11.8C 13.9C 1016.0 hPa 1015.0 hPa 0.0 mm          
23/10/2007 17.6C 11.5C 14.6C 1015.0 hPa 1014.0 hPa 0.0 mm          
24/10/2007 14.5C 11.0C 12.8C 1014.0 hPa 1012.0 hPa 16.6 mm          
25/10/2007 17.5C 11.5C 14.5C 1018.0 hPa 1015.0 hPa 0.0 mm          
26/10/2007 16.0C 10.8C 13.4C 1018.0 hPa 1017.0 hPa 0.0 mm          
27/10/2007 18.0C 12.0C 15.0C 1020.0 hPa 1017.0 hPa 5.8 mm          
28/10/2007 16.0C 9.8C 12.9C 1030.0 hPa 1025.0 hPa 1.8 mm          
29/10/2007 20.0C 9.0C 14.5C 1033.0 hPa 1033.0 hPa 0.4 mm          
30/10/2007 17.4C 9.2C 13.3C 1034.0 hPa 1031.0 hPa 0.0 mm          
Back to top 31/10/2007 19.6C 9.3C 14.5C 1031.0 hPa 1027.0 hPa 0.0 mm